sensor_id;sensor_type;location;lat;lon;timestamp;P1;durP1;ratioP1;P2;durP2;ratioP2
7193;SDS011;3638;48.820;9.244;2024-01-30T00:00:24;16.43;;;11.73;;
7193;SDS011;3638;48.820;9.244;2024-01-30T00:02:52;16.50;;;12.43;;
7193;SDS011;3638;48.820;9.244;2024-01-30T00:05:20;16.60;;;11.60;;
7193;SDS011;3638;48.820;9.244;2024-01-30T00:07:46;15.87;;;11.53;;
7193;SDS011;3638;48.820;9.244;2024-01-30T00:10:13;14.57;;;11.90;;
7193;SDS011;3638;48.820;9.244;2024-01-30T00:12:40;14.97;;;11.37;;
7193;SDS011;3638;48.820;9.244;2024-01-30T00:15:08;14.60;;;11.60;;
7193;SDS011;3638;48.820;9.244;2024-01-30T00:17:35;15.60;;;11.77;;
7193;SDS011;3638;48.820;9.244;2024-01-30T00:20:04;15.63;;;11.90;;
7193;SDS011;3638;48.820;9.244;2024-01-30T00:22:34;15.37;;;11.30;;
7193;SDS011;3638;48.820;9.244;2024-01-30T00:25:01;15.67;;;11.23;;
7193;SDS011;3638;48.820;9.244;2024-01-30T00:27:29;13.43;;;10.77;;
7193;SDS011;3638;48.820;9.244;2024-01-30T00:29:56;14.40;;;11.10;;
7193;SDS011;3638;48.820;9.244;2024-01-30T00:32:23;16.73;;;11.13;;
7193;SDS011;3638;48.820;9.244;2024-01-30T00:34:51;16.10;;;11.20;;
7193;SDS011;3638;48.820;9.244;2024-01-30T00:37:19;13.73;;;11.00;;
7193;SDS011;3638;48.820;9.244;2024-01-30T00:39:46;14.13;;;11.60;;
7193;SDS011;3638;48.820;9.244;2024-01-30T00:42:14;14.23;;;11.47;;
7193;SDS011;3638;48.820;9.244;2024-01-30T00:44:41;12.40;;;11.07;;
7193;SDS011;3638;48.820;9.244;2024-01-30T00:47:08;13.03;;;11.10;;
7193;SDS011;3638;48.820;9.244;2024-01-30T00:49:35;16.53;;;12.20;;
7193;SDS011;3638;48.820;9.244;2024-01-30T00:52:03;13.27;;;11.53;;
7193;SDS011;3638;48.820;9.244;2024-01-30T00:54:32;13.23;;;11.47;;
7193;SDS011;3638;48.820;9.244;2024-01-30T00:56:59;15.77;;;12.00;;
7193;SDS011;3638;48.820;9.244;2024-01-30T00:59:26;13.77;;;11.50;;
7193;SDS011;3638;48.820;9.244;2024-01-30T01:01:53;14.60;;;11.03;;
7193;SDS011;3638;48.820;9.244;2024-01-30T01:04:20;12.17;;;10.70;;
7193;SDS011;3638;48.820;9.244;2024-01-30T01:06:48;13.17;;;11.30;;
7193;SDS011;3638;48.820;9.244;2024-01-30T01:09:15;14.67;;;11.70;;
7193;SDS011;3638;48.820;9.244;2024-01-30T01:11:43;13.43;;;11.30;;
7193;SDS011;3638;48.820;9.244;2024-01-30T01:14:11;14.90;;;11.20;;
7193;SDS011;3638;48.820;9.244;2024-01-30T01:16:38;14.13;;;11.07;;
7193;SDS011;3638;48.820;9.244;2024-01-30T01:19:05;14.07;;;11.67;;
7193;SDS011;3638;48.820;9.244;2024-01-30T01:21:32;13.37;;;11.60;;
7193;SDS011;3638;48.820;9.244;2024-01-30T01:23:59;13.63;;;10.73;;
7193;SDS011;3638;48.820;9.244;2024-01-30T01:26:27;15.13;;;11.30;;
7193;SDS011;3638;48.820;9.244;2024-01-30T01:28:55;14.27;;;11.50;;
7193;SDS011;3638;48.820;9.244;2024-01-30T01:31:22;12.53;;;10.60;;
7193;SDS011;3638;48.820;9.244;2024-01-30T01:33:50;12.70;;;11.10;;
7193;SDS011;3638;48.820;9.244;2024-01-30T01:36:17;15.87;;;11.27;;
7193;SDS011;3638;48.820;9.244;2024-01-30T01:38:45;13.97;;;9.90;;
7193;SDS011;3638;48.820;9.244;2024-01-30T01:41:12;14.10;;;12.30;;
7193;SDS011;3638;48.820;9.244;2024-01-30T01:43:39;15.23;;;11.57;;
7193;SDS011;3638;48.820;9.244;2024-01-30T01:46:07;11.53;;;10.33;;
7193;SDS011;3638;48.820;9.244;2024-01-30T01:48:35;14.70;;;10.87;;
7193;SDS011;3638;48.820;9.244;2024-01-30T01:51:04;12.77;;;10.37;;
7193;SDS011;3638;48.820;9.244;2024-01-30T01:53:32;11.83;;;10.60;;
7193;SDS011;3638;48.820;9.244;2024-01-30T01:55:59;12.93;;;10.73;;
7193;SDS011;3638;48.820;9.244;2024-01-30T01:58:28;13.00;;;11.67;;
7193;SDS011;3638;48.820;9.244;2024-01-30T02:00:56;13.70;;;10.77;;
7193;SDS011;3638;48.820;9.244;2024-01-30T02:03:25;13.83;;;11.23;;
7193;SDS011;3638;48.820;9.244;2024-01-30T02:05:53;13.17;;;11.40;;
7193;SDS011;3638;48.820;9.244;2024-01-30T02:08:20;15.33;;;11.63;;
7193;SDS011;3638;48.820;9.244;2024-01-30T02:10:48;12.63;;;11.03;;
7193;SDS011;3638;48.820;9.244;2024-01-30T02:13:15;14.90;;;11.87;;
7193;SDS011;3638;48.820;9.244;2024-01-30T02:15:42;15.87;;;11.47;;
7193;SDS011;3638;48.820;9.244;2024-01-30T02:18:09;13.93;;;11.33;;
7193;SDS011;3638;48.820;9.244;2024-01-30T02:20:38;12.03;;;10.63;;
7193;SDS011;3638;48.820;9.244;2024-01-30T02:23:06;13.67;;;10.67;;
7193;SDS011;3638;48.820;9.244;2024-01-30T02:25:36;15.67;;;11.23;;
7193;SDS011;3638;48.820;9.244;2024-01-30T02:28:09;14.63;;;11.70;;
7193;SDS011;3638;48.820;9.244;2024-01-30T02:30:36;11.57;;;10.30;;
7193;SDS011;3638;48.820;9.244;2024-01-30T02:33:04;12.27;;;11.03;;
7193;SDS011;3638;48.820;9.244;2024-01-30T02:35:31;13.23;;;11.23;;
7193;SDS011;3638;48.820;9.244;2024-01-30T02:37:59;13.70;;;10.83;;
7193;SDS011;3638;48.820;9.244;2024-01-30T02:40:28;12.87;;;11.50;;
7193;SDS011;3638;48.820;9.244;2024-01-30T02:42:55;13.13;;;11.20;;
7193;SDS011;3638;48.820;9.244;2024-01-30T02:45:23;14.67;;;11.40;;
7193;SDS011;3638;48.820;9.244;2024-01-30T02:47:51;14.30;;;11.70;;
7193;SDS011;3638;48.820;9.244;2024-01-30T02:50:18;14.67;;;12.37;;
7193;SDS011;3638;48.820;9.244;2024-01-30T02:52:45;14.40;;;11.20;;
7193;SDS011;3638;48.820;9.244;2024-01-30T02:55:13;13.83;;;11.20;;
7193;SDS011;3638;48.820;9.244;2024-01-30T02:57:43;14.23;;;11.40;;
7193;SDS011;3638;48.820;9.244;2024-01-30T03:00:11;14.97;;;12.27;;
7193;SDS011;3638;48.820;9.244;2024-01-30T03:02:39;14.43;;;11.73;;
7193;SDS011;3638;48.820;9.244;2024-01-30T03:05:07;13.53;;;10.13;;
7193;SDS011;3638;48.820;9.244;2024-01-30T03:07:34;11.50;;;10.30;;
7193;SDS011;3638;48.820;9.244;2024-01-30T03:10:02;12.97;;;10.80;;
7193;SDS011;3638;48.820;9.244;2024-01-30T03:12:30;12.80;;;11.30;;
7193;SDS011;3638;48.820;9.244;2024-01-30T03:14:59;17.43;;;11.57;;
7193;SDS011;3638;48.820;9.244;2024-01-30T03:17:26;13.53;;;11.40;;
7193;SDS011;3638;48.820;9.244;2024-01-30T03:19:54;15.23;;;12.07;;
7193;SDS011;3638;48.820;9.244;2024-01-30T03:22:21;15.33;;;11.63;;
7193;SDS011;3638;48.820;9.244;2024-01-30T03:24:48;13.70;;;11.87;;
7193;SDS011;3638;48.820;9.244;2024-01-30T03:27:16;12.10;;;10.80;;
7193;SDS011;3638;48.820;9.244;2024-01-30T03:29:43;13.57;;;11.00;;
7193;SDS011;3638;48.820;9.244;2024-01-30T03:32:11;13.13;;;11.10;;
7193;SDS011;3638;48.820;9.244;2024-01-30T03:34:39;12.67;;;11.00;;
7193;SDS011;3638;48.820;9.244;2024-01-30T03:37:06;13.67;;;11.07;;
7193;SDS011;3638;48.820;9.244;2024-01-30T03:39:33;13.43;;;11.73;;
7193;SDS011;3638;48.820;9.244;2024-01-30T03:42:01;12.80;;;11.27;;
7193;SDS011;3638;48.820;9.244;2024-01-30T03:44:29;14.17;;;10.67;;
7193;SDS011;3638;48.820;9.244;2024-01-30T03:46:56;12.40;;;11.10;;
7193;SDS011;3638;48.820;9.244;2024-01-30T03:49:25;14.93;;;11.80;;
7193;SDS011;3638;48.820;9.244;2024-01-30T03:51:52;12.97;;;11.07;;
7193;SDS011;3638;48.820;9.244;2024-01-30T03:54:19;13.47;;;11.57;;
7193;SDS011;3638;48.820;9.244;2024-01-30T03:56:46;14.93;;;11.30;;
7193;SDS011;3638;48.820;9.244;2024-01-30T03:59:13;14.07;;;10.83;;
7193;SDS011;3638;48.820;9.244;2024-01-30T04:01:42;12.70;;;11.23;;
7193;SDS011;3638;48.820;9.244;2024-01-30T04:04:12;15.20;;;10.67;;
7193;SDS011;3638;48.820;9.244;2024-01-30T04:06:40;14.97;;;11.50;;
7193;SDS011;3638;48.820;9.244;2024-01-30T04:09:08;12.70;;;11.23;;
7193;SDS011;3638;48.820;9.244;2024-01-30T04:11:36;13.03;;;10.43;;
7193;SDS011;3638;48.820;9.244;2024-01-30T04:14:03;12.23;;;10.43;;
7193;SDS011;3638;48.820;9.244;2024-01-30T04:16:30;14.90;;;10.53;;
7193;SDS011;3638;48.820;9.244;2024-01-30T04:18:57;10.53;;;9.53;;
7193;SDS011;3638;48.820;9.244;2024-01-30T04:21:25;11.30;;;9.60;;
7193;SDS011;3638;48.820;9.244;2024-01-30T04:23:53;11.33;;;10.03;;
7193;SDS011;3638;48.820;9.244;2024-01-30T04:26:20;10.80;;;9.73;;
7193;SDS011;3638;48.820;9.244;2024-01-30T04:28:48;11.07;;;9.60;;
7193;SDS011;3638;48.820;9.244;2024-01-30T04:31:15;11.23;;;9.93;;
7193;SDS011;3638;48.820;9.244;2024-01-30T04:33:43;10.60;;;9.43;;
7193;SDS011;3638;48.820;9.244;2024-01-30T04:36:10;11.07;;;9.70;;
7193;SDS011;3638;48.820;9.244;2024-01-30T04:38:37;10.50;;;9.47;;
7193;SDS011;3638;48.820;9.244;2024-01-30T04:41:06;10.37;;;9.37;;
7193;SDS011;3638;48.820;9.244;2024-01-30T04:43:33;11.57;;;9.97;;
7193;SDS011;3638;48.820;9.244;2024-01-30T04:46:00;11.77;;;9.70;;
7193;SDS011;3638;48.820;9.244;2024-01-30T04:48:28;12.60;;;11.27;;
7193;SDS011;3638;48.820;9.244;2024-01-30T04:50:55;15.10;;;12.43;;
7193;SDS011;3638;48.820;9.244;2024-01-30T04:53:22;10.43;;;9.33;;
7193;SDS011;3638;48.820;9.244;2024-01-30T04:55:49;11.03;;;9.93;;
7193;SDS011;3638;48.820;9.244;2024-01-30T04:58:18;10.67;;;9.63;;
7193;SDS011;3638;48.820;9.244;2024-01-30T05:00:45;10.47;;;9.33;;
7193;SDS011;3638;48.820;9.244;2024-01-30T05:03:16;10.50;;;9.43;;
7193;SDS011;3638;48.820;9.244;2024-01-30T05:05:43;10.50;;;9.47;;
7193;SDS011;3638;48.820;9.244;2024-01-30T05:08:11;10.20;;;9.20;;
7193;SDS011;3638;48.820;9.244;2024-01-30T05:10:38;12.23;;;9.77;;
7193;SDS011;3638;48.820;9.244;2024-01-30T05:13:05;10.83;;;9.83;;
7193;SDS011;3638;48.820;9.244;2024-01-30T05:15:33;12.63;;;10.13;;
7193;SDS011;3638;48.820;9.244;2024-01-30T05:18:01;11.33;;;10.10;;
7193;SDS011;3638;48.820;9.244;2024-01-30T05:20:28;13.03;;;11.13;;
7193;SDS011;3638;48.820;9.244;2024-01-30T05:22:55;14.83;;;11.57;;
7193;SDS011;3638;48.820;9.244;2024-01-30T05:25:23;14.73;;;12.60;;
7193;SDS011;3638;48.820;9.244;2024-01-30T05:27:50;17.10;;;13.70;;
7193;SDS011;3638;48.820;9.244;2024-01-30T05:30:17;18.57;;;14.50;;
7193;SDS011;3638;48.820;9.244;2024-01-30T05:32:46;17.10;;;14.20;;
7193;SDS011;3638;48.820;9.244;2024-01-30T05:35:13;18.37;;;13.87;;
7193;SDS011;3638;48.820;9.244;2024-01-30T05:37:40;17.87;;;14.80;;
7193;SDS011;3638;48.820;9.244;2024-01-30T05:40:08;17.93;;;14.37;;
7193;SDS011;3638;48.820;9.244;2024-01-30T05:42:36;18.00;;;13.93;;
7193;SDS011;3638;48.820;9.244;2024-01-30T05:45:03;20.93;;;14.33;;
7193;SDS011;3638;48.820;9.244;2024-01-30T05:47:31;14.87;;;13.27;;
7193;SDS011;3638;48.820;9.244;2024-01-30T05:49:59;15.80;;;13.67;;
7193;SDS011;3638;48.820;9.244;2024-01-30T05:52:27;17.50;;;13.27;;
7193;SDS011;3638;48.820;9.244;2024-01-30T05:54:54;17.83;;;14.00;;
7193;SDS011;3638;48.820;9.244;2024-01-30T05:57:21;15.93;;;13.27;;
7193;SDS011;3638;48.820;9.244;2024-01-30T05:59:48;14.87;;;13.27;;
7193;SDS011;3638;48.820;9.244;2024-01-30T06:02:17;18.07;;;13.93;;
7193;SDS011;3638;48.820;9.244;2024-01-30T06:04:44;18.13;;;13.63;;
7193;SDS011;3638;48.820;9.244;2024-01-30T06:07:12;16.03;;;13.50;;
7193;SDS011;3638;48.820;9.244;2024-01-30T06:09:40;16.27;;;13.50;;
7193;SDS011;3638;48.820;9.244;2024-01-30T06:12:07;15.53;;;12.47;;
7193;SDS011;3638;48.820;9.244;2024-01-30T06:14:36;16.93;;;13.07;;
7193;SDS011;3638;48.820;9.244;2024-01-30T06:17:04;15.43;;;12.87;;
7193;SDS011;3638;48.820;9.244;2024-01-30T06:19:31;14.10;;;12.40;;
7193;SDS011;3638;48.820;9.244;2024-01-30T06:21:58;16.10;;;13.13;;
7193;SDS011;3638;48.820;9.244;2024-01-30T06:24:27;15.47;;;12.00;;
7193;SDS011;3638;48.820;9.244;2024-01-30T06:26:55;18.27;;;12.90;;
7193;SDS011;3638;48.820;9.244;2024-01-30T06:29:22;15.50;;;12.87;;
7193;SDS011;3638;48.820;9.244;2024-01-30T06:31:51;17.20;;;12.93;;
7193;SDS011;3638;48.820;9.244;2024-01-30T06:34:19;18.47;;;13.30;;
7193;SDS011;3638;48.820;9.244;2024-01-30T06:36:46;14.50;;;13.00;;
7193;SDS011;3638;48.820;9.244;2024-01-30T06:39:13;16.53;;;12.70;;
7193;SDS011;3638;48.820;9.244;2024-01-30T06:41:42;16.07;;;13.00;;
7193;SDS011;3638;48.820;9.244;2024-01-30T06:44:11;16.83;;;12.93;;
7193;SDS011;3638;48.820;9.244;2024-01-30T06:46:38;16.03;;;12.33;;
7193;SDS011;3638;48.820;9.244;2024-01-30T06:49:06;16.70;;;12.60;;
7193;SDS011;3638;48.820;9.244;2024-01-30T06:51:33;17.77;;;13.97;;
7193;SDS011;3638;48.820;9.244;2024-01-30T06:54:00;18.47;;;13.73;;
7193;SDS011;3638;48.820;9.244;2024-01-30T06:56:27;19.63;;;13.70;;
7193;SDS011;3638;48.820;9.244;2024-01-30T06:58:57;17.67;;;14.30;;
7193;SDS011;3638;48.820;9.244;2024-01-30T07:01:27;19.20;;;15.30;;
7193;SDS011;3638;48.820;9.244;2024-01-30T07:03:55;16.70;;;13.80;;
7193;SDS011;3638;48.820;9.244;2024-01-30T07:06:22;16.23;;;14.00;;
7193;SDS011;3638;48.820;9.244;2024-01-30T07:08:49;16.43;;;14.20;;
7193;SDS011;3638;48.820;9.244;2024-01-30T07:11:18;18.37;;;13.77;;
7193;SDS011;3638;48.820;9.244;2024-01-30T07:13:46;17.90;;;14.53;;
7193;SDS011;3638;48.820;9.244;2024-01-30T07:16:15;17.63;;;13.80;;
7193;SDS011;3638;48.820;9.244;2024-01-30T07:18:43;16.60;;;13.40;;
7193;SDS011;3638;48.820;9.244;2024-01-30T07:21:10;16.20;;;13.30;;
7193;SDS011;3638;48.820;9.244;2024-01-30T07:23:37;15.57;;;13.73;;
7193;SDS011;3638;48.820;9.244;2024-01-30T07:26:04;16.43;;;13.97;;
7193;SDS011;3638;48.820;9.244;2024-01-30T07:28:33;16.47;;;12.70;;
7193;SDS011;3638;48.820;9.244;2024-01-30T07:31:00;17.07;;;13.10;;
7193;SDS011;3638;48.820;9.244;2024-01-30T07:33:29;14.90;;;12.67;;
7193;SDS011;3638;48.820;9.244;2024-01-30T07:35:56;17.80;;;13.20;;
7193;SDS011;3638;48.820;9.244;2024-01-30T07:38:24;16.00;;;12.63;;
7193;SDS011;3638;48.820;9.244;2024-01-30T07:40:51;15.97;;;12.27;;
7193;SDS011;3638;48.820;9.244;2024-01-30T07:43:19;16.63;;;12.77;;
7193;SDS011;3638;48.820;9.244;2024-01-30T07:45:46;15.70;;;12.17;;
7193;SDS011;3638;48.820;9.244;2024-01-30T07:48:13;14.00;;;12.03;;
7193;SDS011;3638;48.820;9.244;2024-01-30T07:50:42;14.20;;;11.97;;
7193;SDS011;3638;48.820;9.244;2024-01-30T07:53:09;15.37;;;12.60;;
7193;SDS011;3638;48.820;9.244;2024-01-30T07:55:36;15.77;;;12.40;;
7193;SDS011;3638;48.820;9.244;2024-01-30T07:58:04;13.03;;;11.07;;
7193;SDS011;3638;48.820;9.244;2024-01-30T08:00:31;14.80;;;11.73;;
7193;SDS011;3638;48.820;9.244;2024-01-30T08:02:58;16.40;;;12.80;;
7193;SDS011;3638;48.820;9.244;2024-01-30T08:05:25;13.07;;;11.50;;
7193;SDS011;3638;48.820;9.244;2024-01-30T08:07:54;14.57;;;11.80;;
7193;SDS011;3638;48.820;9.244;2024-01-30T08:10:21;14.60;;;11.93;;
7193;SDS011;3638;48.820;9.244;2024-01-30T08:12:48;13.87;;;11.33;;
7193;SDS011;3638;48.820;9.244;2024-01-30T08:15:16;16.47;;;12.20;;
7193;SDS011;3638;48.820;9.244;2024-01-30T08:17:43;13.70;;;11.33;;
7193;SDS011;3638;48.820;9.244;2024-01-30T08:20:10;15.23;;;11.40;;
7193;SDS011;3638;48.820;9.244;2024-01-30T08:22:38;14.50;;;11.20;;
7193;SDS011;3638;48.820;9.244;2024-01-30T08:25:07;13.57;;;10.63;;
7193;SDS011;3638;48.820;9.244;2024-01-30T08:27:35;12.90;;;10.80;;
7193;SDS011;3638;48.820;9.244;2024-01-30T08:30:03;12.23;;;10.80;;
7193;SDS011;3638;48.820;9.244;2024-01-30T08:32:32;14.47;;;10.57;;
7193;SDS011;3638;48.820;9.244;2024-01-30T08:34:59;13.25;;;10.30;;
7193;SDS011;3638;48.820;9.244;2024-01-30T08:37:28;12.37;;;9.73;;
7193;SDS011;3638;48.820;9.244;2024-01-30T08:39:56;12.30;;;9.97;;
7193;SDS011;3638;48.820;9.244;2024-01-30T08:42:24;14.07;;;10.30;;
7193;SDS011;3638;48.820;9.244;2024-01-30T08:44:51;13.20;;;10.40;;
7193;SDS011;3638;48.820;9.244;2024-01-30T08:47:19;12.40;;;9.53;;
7193;SDS011;3638;48.820;9.244;2024-01-30T08:49:46;11.10;;;9.67;;
7193;SDS011;3638;48.820;9.244;2024-01-30T08:52:13;12.83;;;9.87;;
7193;SDS011;3638;48.820;9.244;2024-01-30T08:54:41;14.47;;;11.17;;
7193;SDS011;3638;48.820;9.244;2024-01-30T08:57:08;14.00;;;10.87;;
7193;SDS011;3638;48.820;9.244;2024-01-30T08:59:36;15.50;;;11.17;;
7193;SDS011;3638;48.820;9.244;2024-01-30T09:02:04;12.80;;;10.47;;
7193;SDS011;3638;48.820;9.244;2024-01-30T09:04:31;13.37;;;9.47;;
7193;SDS011;3638;48.820;9.244;2024-01-30T09:06:58;16.50;;;11.90;;
7193;SDS011;3638;48.820;9.244;2024-01-30T09:09:25;14.00;;;9.57;;
7193;SDS011;3638;48.820;9.244;2024-01-30T09:11:53;13.73;;;9.97;;
7193;SDS011;3638;48.820;9.244;2024-01-30T09:14:20;14.87;;;10.60;;
7193;SDS011;3638;48.820;9.244;2024-01-30T09:16:48;18.23;;;10.17;;
7193;SDS011;3638;48.820;9.244;2024-01-30T09:19:16;13.93;;;9.73;;
7193;SDS011;3638;48.820;9.244;2024-01-30T09:21:43;16.73;;;10.40;;
7193;SDS011;3638;48.820;9.244;2024-01-30T09:24:10;13.53;;;10.63;;
7193;SDS011;3638;48.820;9.244;2024-01-30T09:26:37;12.50;;;10.13;;
7193;SDS011;3638;48.820;9.244;2024-01-30T09:29:04;11.97;;;9.57;;
7193;SDS011;3638;48.820;9.244;2024-01-30T09:31:32;13.80;;;10.23;;
7193;SDS011;3638;48.820;9.244;2024-01-30T09:34:00;15.47;;;10.93;;
7193;SDS011;3638;48.820;9.244;2024-01-30T09:36:27;13.30;;;9.87;;
7193;SDS011;3638;48.820;9.244;2024-01-30T09:38:55;15.27;;;9.53;;
7193;SDS011;3638;48.820;9.244;2024-01-30T09:41:22;15.73;;;11.10;;
7193;SDS011;3638;48.820;9.244;2024-01-30T09:43:51;13.40;;;10.67;;
7193;SDS011;3638;48.820;9.244;2024-01-30T09:46:18;11.83;;;10.40;;
7193;SDS011;3638;48.820;9.244;2024-01-30T09:48:47;16.03;;;11.17;;
7193;SDS011;3638;48.820;9.244;2024-01-30T09:51:16;19.07;;;10.70;;
7193;SDS011;3638;48.820;9.244;2024-01-30T09:53:43;14.73;;;10.50;;
7193;SDS011;3638;48.820;9.244;2024-01-30T09:56:12;13.67;;;9.90;;
7193;SDS011;3638;48.820;9.244;2024-01-30T09:58:39;14.57;;;10.80;;
7193;SDS011;3638;48.820;9.244;2024-01-30T10:01:07;17.10;;;11.03;;
7193;SDS011;3638;48.820;9.244;2024-01-30T10:03:34;16.07;;;11.10;;
7193;SDS011;3638;48.820;9.244;2024-01-30T10:06:01;13.13;;;10.57;;
7193;SDS011;3638;48.820;9.244;2024-01-30T10:08:30;15.40;;;10.43;;
7193;SDS011;3638;48.820;9.244;2024-01-30T10:10:58;15.93;;;10.87;;
7193;SDS011;3638;48.820;9.244;2024-01-30T10:13:26;13.40;;;10.57;;
7193;SDS011;3638;48.820;9.244;2024-01-30T10:15:54;14.83;;;10.40;;
7193;SDS011;3638;48.820;9.244;2024-01-30T10:18:23;14.77;;;10.00;;
7193;SDS011;3638;48.820;9.244;2024-01-30T10:20:50;14.03;;;9.93;;
7193;SDS011;3638;48.820;9.244;2024-01-30T10:23:19;13.97;;;10.20;;
7193;SDS011;3638;48.820;9.244;2024-01-30T10:25:48;11.20;;;9.03;;
7193;SDS011;3638;48.820;9.244;2024-01-30T10:28:16;13.20;;;9.83;;
7193;SDS011;3638;48.820;9.244;2024-01-30T10:30:44;15.97;;;9.63;;
7193;SDS011;3638;48.820;9.244;2024-01-30T10:33:11;13.37;;;9.77;;
7193;SDS011;3638;48.820;9.244;2024-01-30T10:35:38;13.37;;;9.50;;
7193;SDS011;3638;48.820;9.244;2024-01-30T10:38:05;16.77;;;10.20;;
7193;SDS011;3638;48.820;9.244;2024-01-30T10:40:35;13.63;;;9.87;;
7193;SDS011;3638;48.820;9.244;2024-01-30T10:43:05;15.47;;;10.73;;
7193;SDS011;3638;48.820;9.244;2024-01-30T10:45:49;13.07;;;9.85;;
7193;SDS011;3638;48.820;9.244;2024-01-30T10:48:18;19.50;;;9.33;;
7193;SDS011;3638;48.820;9.244;2024-01-30T10:50:47;15.37;;;9.47;;
7193;SDS011;3638;48.820;9.244;2024-01-30T10:53:14;15.93;;;10.20;;
7193;SDS011;3638;48.820;9.244;2024-01-30T10:55:43;13.50;;;8.63;;
7193;SDS011;3638;48.820;9.244;2024-01-30T10:58:11;12.77;;;9.00;;
7193;SDS011;3638;48.820;9.244;2024-01-30T11:00:40;11.60;;;8.53;;
7193;SDS011;3638;48.820;9.244;2024-01-30T11:03:07;12.70;;;8.77;;
7193;SDS011;3638;48.820;9.244;2024-01-30T11:05:35;9.87;;;8.57;;
7193;SDS011;3638;48.820;9.244;2024-01-30T11:08:10;13.97;;;8.50;;
7193;SDS011;3638;48.820;9.244;2024-01-30T11:10:44;11.93;;;8.90;;
7193;SDS011;3638;48.820;9.244;2024-01-30T11:13:14;10.40;;;8.07;;
7193;SDS011;3638;48.820;9.244;2024-01-30T11:15:41;12.13;;;8.07;;
7193;SDS011;3638;48.820;9.244;2024-01-30T11:18:08;14.20;;;8.87;;
7193;SDS011;3638;48.820;9.244;2024-01-30T11:20:36;11.87;;;7.57;;
7193;SDS011;3638;48.820;9.244;2024-01-30T11:23:10;13.23;;;8.07;;
7193;SDS011;3638;48.820;9.244;2024-01-30T11:25:38;12.37;;;8.80;;
7193;SDS011;3638;48.820;9.244;2024-01-30T11:28:06;13.70;;;9.17;;
7193;SDS011;3638;48.820;9.244;2024-01-30T11:30:41;16.87;;;9.23;;
7193;SDS011;3638;48.820;9.244;2024-01-30T11:33:09;15.40;;;9.17;;
7193;SDS011;3638;48.820;9.244;2024-01-30T11:35:37;13.93;;;9.17;;
7193;SDS011;3638;48.820;9.244;2024-01-30T11:38:05;13.90;;;8.97;;
7193;SDS011;3638;48.820;9.244;2024-01-30T11:40:34;12.97;;;9.10;;
7193;SDS011;3638;48.820;9.244;2024-01-30T11:43:03;12.23;;;8.70;;
7193;SDS011;3638;48.820;9.244;2024-01-30T11:45:32;22.93;;;12.93;;
7193;SDS011;3638;48.820;9.244;2024-01-30T11:48:00;24.77;;;14.87;;
7193;SDS011;3638;48.820;9.244;2024-01-30T11:50:28;23.93;;;12.77;;
7193;SDS011;3638;48.820;9.244;2024-01-30T11:52:56;15.70;;;10.87;;
7193;SDS011;3638;48.820;9.244;2024-01-30T11:55:24;17.30;;;10.53;;
7193;SDS011;3638;48.820;9.244;2024-01-30T11:57:51;13.77;;;9.17;;
7193;SDS011;3638;48.820;9.244;2024-01-30T12:00:22;14.77;;;9.17;;
7193;SDS011;3638;48.820;9.244;2024-01-30T12:02:50;13.57;;;8.97;;
7193;SDS011;3638;48.820;9.244;2024-01-30T12:05:21;14.73;;;10.03;;
7193;SDS011;3638;48.820;9.244;2024-01-30T12:07:48;13.33;;;9.30;;
7193;SDS011;3638;48.820;9.244;2024-01-30T12:10:16;20.27;;;10.07;;
7193;SDS011;3638;48.820;9.244;2024-01-30T12:12:44;20.90;;;11.33;;
7193;SDS011;3638;48.820;9.244;2024-01-30T12:15:13;17.20;;;10.43;;
7193;SDS011;3638;48.820;9.244;2024-01-30T12:17:41;14.23;;;10.60;;
7193;SDS011;3638;48.820;9.244;2024-01-30T12:20:10;21.47;;;10.13;;
7193;SDS011;3638;48.820;9.244;2024-01-30T12:22:39;18.93;;;11.03;;
7193;SDS011;3638;48.820;9.244;2024-01-30T12:25:07;17.03;;;10.20;;
7193;SDS011;3638;48.820;9.244;2024-01-30T12:27:35;15.93;;;9.93;;
7193;SDS011;3638;48.820;9.244;2024-01-30T12:30:05;16.93;;;10.17;;
7193;SDS011;3638;48.820;9.244;2024-01-30T12:32:34;15.13;;;9.90;;
7193;SDS011;3638;48.820;9.244;2024-01-30T12:35:02;14.00;;;10.03;;
7193;SDS011;3638;48.820;9.244;2024-01-30T12:37:30;16.57;;;9.67;;
7193;SDS011;3638;48.820;9.244;2024-01-30T12:39:58;14.33;;;9.27;;
7193;SDS011;3638;48.820;9.244;2024-01-30T12:42:26;17.77;;;9.63;;
7193;SDS011;3638;48.820;9.244;2024-01-30T12:44:53;17.03;;;9.93;;
7193;SDS011;3638;48.820;9.244;2024-01-30T12:47:22;17.67;;;9.60;;
7193;SDS011;3638;48.820;9.244;2024-01-30T12:49:50;17.70;;;9.37;;
7193;SDS011;3638;48.820;9.244;2024-01-30T12:52:18;13.37;;;10.00;;
7193;SDS011;3638;48.820;9.244;2024-01-30T12:54:47;12.20;;;10.07;;
7193;SDS011;3638;48.820;9.244;2024-01-30T12:57:15;15.50;;;9.73;;
7193;SDS011;3638;48.820;9.244;2024-01-30T12:59:43;21.17;;;11.00;;
7193;SDS011;3638;48.820;9.244;2024-01-30T13:02:11;16.87;;;10.13;;
7193;SDS011;3638;48.820;9.244;2024-01-30T13:04:39;13.47;;;10.40;;
7193;SDS011;3638;48.820;9.244;2024-01-30T13:07:06;13.80;;;10.50;;
7193;SDS011;3638;48.820;9.244;2024-01-30T13:09:33;16.50;;;10.73;;
7193;SDS011;3638;48.820;9.244;2024-01-30T13:12:03;16.97;;;10.87;;
7193;SDS011;3638;48.820;9.244;2024-01-30T13:14:30;15.83;;;10.20;;
7193;SDS011;3638;48.820;9.244;2024-01-30T13:16:57;17.13;;;10.10;;
7193;SDS011;3638;48.820;9.244;2024-01-30T13:19:25;15.87;;;10.13;;
7193;SDS011;3638;48.820;9.244;2024-01-30T13:21:52;15.87;;;11.10;;
7193;SDS011;3638;48.820;9.244;2024-01-30T13:24:19;16.90;;;11.17;;
7193;SDS011;3638;48.820;9.244;2024-01-30T13:26:47;17.53;;;10.90;;
7193;SDS011;3638;48.820;9.244;2024-01-30T13:29:16;16.17;;;10.63;;
7193;SDS011;3638;48.820;9.244;2024-01-30T13:31:43;16.40;;;9.83;;
7193;SDS011;3638;48.820;9.244;2024-01-30T13:34:11;16.17;;;9.80;;
7193;SDS011;3638;48.820;9.244;2024-01-30T13:36:39;15.07;;;10.43;;
7193;SDS011;3638;48.820;9.244;2024-01-30T13:39:07;14.90;;;10.83;;
7193;SDS011;3638;48.820;9.244;2024-01-30T13:41:35;14.50;;;10.37;;
7193;SDS011;3638;48.820;9.244;2024-01-30T13:44:03;14.63;;;10.53;;
7193;SDS011;3638;48.820;9.244;2024-01-30T13:46:31;21.77;;;10.77;;
7193;SDS011;3638;48.820;9.244;2024-01-30T13:48:59;14.00;;;9.93;;
7193;SDS011;3638;48.820;9.244;2024-01-30T13:51:26;13.93;;;9.80;;
7193;SDS011;3638;48.820;9.244;2024-01-30T13:53:53;15.03;;;9.77;;
7193;SDS011;3638;48.820;9.244;2024-01-30T13:56:20;13.37;;;9.60;;
7193;SDS011;3638;48.820;9.244;2024-01-30T13:58:48;16.70;;;10.17;;
7193;SDS011;3638;48.820;9.244;2024-01-30T14:01:15;16.20;;;9.43;;
7193;SDS011;3638;48.820;9.244;2024-01-30T14:03:44;15.27;;;9.70;;
7193;SDS011;3638;48.820;9.244;2024-01-30T14:06:12;12.63;;;9.23;;
7193;SDS011;3638;48.820;9.244;2024-01-30T14:08:39;14.33;;;10.07;;
7193;SDS011;3638;48.820;9.244;2024-01-30T14:11:06;13.70;;;10.13;;
7193;SDS011;3638;48.820;9.244;2024-01-30T14:13:33;12.70;;;10.00;;
7193;SDS011;3638;48.820;9.244;2024-01-30T14:16:01;18.30;;;9.53;;
7193;SDS011;3638;48.820;9.244;2024-01-30T14:18:28;12.90;;;10.03;;
7193;SDS011;3638;48.820;9.244;2024-01-30T14:20:56;14.73;;;9.43;;
7193;SDS011;3638;48.820;9.244;2024-01-30T14:23:24;15.90;;;9.63;;
7193;SDS011;3638;48.820;9.244;2024-01-30T14:25:51;13.90;;;8.57;;
7193;SDS011;3638;48.820;9.244;2024-01-30T14:28:18;12.83;;;8.90;;
7193;SDS011;3638;48.820;9.244;2024-01-30T14:30:45;9.63;;;8.40;;
7193;SDS011;3638;48.820;9.244;2024-01-30T14:33:13;13.63;;;9.47;;
7193;SDS011;3638;48.820;9.244;2024-01-30T14:35:40;16.77;;;9.13;;
7193;SDS011;3638;48.820;9.244;2024-01-30T14:38:09;12.83;;;9.17;;
7193;SDS011;3638;48.820;9.244;2024-01-30T14:40:36;12.77;;;9.20;;
7193;SDS011;3638;48.820;9.244;2024-01-30T14:43:04;15.67;;;9.67;;
7193;SDS011;3638;48.820;9.244;2024-01-30T14:45:31;16.37;;;10.13;;
7193;SDS011;3638;48.820;9.244;2024-01-30T14:47:58;13.73;;;10.03;;
7193;SDS011;3638;48.820;9.244;2024-01-30T14:50:26;12.17;;;10.23;;
7193;SDS011;3638;48.820;9.244;2024-01-30T14:52:54;14.63;;;10.30;;